首页
METAR-TAF:

METAR-TAF

机场 :

雷塔盧萊烏, 危地马拉

纬度: 14-32N, 经度: 091-40W, 海拔: 239米

当前天气观测

该预报发布于47分钟前的22:00 UTC
风速10节,风向西南
温度 33°C
湿度 49%
气压 1013 hPa
能见度10公里或以上
少量云层高于2200英尺

METAR: MGRT 112200Z 22010KT 9999 FEW022 33/21 Q1013 A2991 VOL,SANTA MARIA Y SANTIAGUITO EN ACTIVIDAD

时间: 16:47 (22:47 UTC)


TAF: 丢失

超过4000个机场的气象观测和天气预报(METAR&TAF报告)。

可查询的气象台以黄色和红色小点在地图上表示。

将鼠标移到小点上方,可查看气象台名称。

然后点击查看天气观测和预报。

如需切换地图:点击带黑十字的绿色按钮放大地图;点击带横线的绿色按钮缩小地图;或者点击绿色箭头查看邻近地区的地图。


METAR-TAF: